Time;durP1;ratioP1;P1;durP2;ratioP2;P2;SDS_P1;SDS_P2;PMS_P1;PMS_P2;Temp;Humidity;BMP_temperature;BMP_pressure;BME280_temperature;BME280_humidity;BME280_pressure;Samples;Min_cycle;Max_cycle;Signal;HPM_P1;HPM_P2
2020/12/23 00:00:02;;;;;;;21.80;7.95;;;;;;;7.62;90.44;98674.54;2206159;81;21321;-65
2020/12/23 00:03:05;;;;;;;26.57;9.20;;;;;;;7.65;90.44;98671.41;2111809;84;21546;-65
2020/12/23 00:06:07;;;;;;;26.87;9.37;;;;;;;7.66;90.40;98670.02;2206218;80;21740;-65
2020/12/23 00:09:09;;;;;;;24.67;9.10;;;;;;;7.66;90.27;98662.63;2112199;84;21219;-65
2020/12/23 00:12:10;;;;;;;24.50;8.38;;;;;;;7.64;90.10;98671.84;2175684;81;21274;-65
2020/12/23 00:15:11;;;;;;;26.60;10.00;;;;;;;7.59;90.04;98661.65;2111758;84;21756;-65
2020/12/23 00:18:12;;;;;;;27.75;9.35;;;;;;;7.58;90.06;98680.84;2206162;81;21697;-65
2020/12/23 00:21:13;;;;;;;25.35;9.40;;;;;;;7.60;90.24;98679.45;2111540;84;21145;-65
2020/12/23 00:24:14;;;;;;;26.05;9.30;;;;;;;7.59;90.29;98679.92;2205924;80;21299;-65
2020/12/23 00:27:15;;;;;;;25.80;9.73;;;;;;;7.60;90.28;98685.98;2111885;84;21151;-69
2020/12/23 00:30:17;;;;;;;26.40;9.83;;;;;;;7.61;90.30;98687.67;2206125;80;21277;-68
2020/12/23 00:33:19;;;;;;;26.05;10.00;;;;;;;7.62;90.29;98694.59;2111969;84;21284;-65
2020/12/23 00:36:20;;;;;;;27.67;9.93;;;;;;;7.65;90.36;98701.42;2206142;81;21285;-67
2020/12/23 00:39:21;;;;;;;24.65;9.65;;;;;;;7.67;90.34;98708.70;2111770;84;21134;-65
2020/12/23 00:42:22;;;;;;;25.70;9.70;;;;;;;7.69;90.30;98711.63;2206371;80;21285;-69
2020/12/23 00:45:23;;;;;;;24.37;9.48;;;;;;;7.69;90.34;98714.71;2111611;84;21119;-66
2020/12/23 00:48:25;;;;;;;24.35;9.68;;;;;;;7.69;90.31;98712.94;2206176;80;21291;-65
2020/12/23 00:51:26;;;;;;;26.15;10.30;;;;;;;7.69;90.49;98737.73;2111787;84;21292;-67
2020/12/23 00:54:27;;;;;;;25.20;9.53;;;;;;;7.69;90.52;98718.16;2206356;81;21309;-65
2020/12/23 00:57:29;;;;;;;26.07;9.18;;;;;;;7.69;90.57;98723.84;2111879;84;21167;-63
2020/12/23 01:00:30;;;;;;;26.52;9.63;;;;;;;7.71;90.61;98733.73;2206294;80;21317;-65
2020/12/23 01:03:31;;;;;;;23.25;9.68;;;;;;;7.72;90.62;98743.27;2111682;84;21692;-67
2020/12/23 01:06:32;;;;;;;23.42;9.35;;;;;;;7.73;90.68;98743.63;2205855;80;21119;-69
2020/12/23 01:09:33;;;;;;;25.35;9.68;;;;;;;7.75;90.73;98740.03;2111545;84;21145;-69
2020/12/23 01:12:35;;;;;;;24.05;8.93;;;;;;;7.79;90.64;98736.34;2206229;81;21777;-65
2020/12/23 01:15:37;;;;;;;26.97;9.20;;;;;;;7.79;90.65;98731.12;2111849;84;21618;-76
2020/12/23 01:18:38;;;;;;;25.80;9.55;;;;;;;7.80;90.68;98724.98;2206313;80;21278;-79
2020/12/23 01:21:39;;;;;;;23.02;9.33;;;;;;;7.82;90.59;98713.15;2111527;84;21187;-66
2020/12/23 01:24:40;;;;;;;24.67;9.83;;;;;;;7.83;90.65;98711.38;2205769;81;21281;-65
2020/12/23 01:27:42;;;;;;;23.90;8.68;;;;;;;7.83;90.70;98700.92;2111569;84;21130;-66
2020/12/23 01:30:43;;;;;;;24.72;8.63;;;;;;;7.85;90.76;98716.07;2206220;80;21281;-65
2020/12/23 01:33:44;;;;;;;24.77;9.50;;;;;;;7.83;90.89;98727.91;2111719;84;21776;-65
2020/12/23 01:36:46;;;;;;;29.15;10.43;;;;;;;7.83;90.88;98724.43;2206340;80;21285;-65
2020/12/23 01:39:47;;;;;;;26.65;11.12;;;;;;;7.85;91.00;98736.97;2111784;84;21265;-65
2020/12/23 01:42:48;;;;;;;26.30;9.53;;;;;;;7.85;90.86;98744.80;2205956;80;21582;-65
2020/12/23 01:45:49;;;;;;;27.62;10.28;;;;;;;7.84;91.08;98745.23;2111919;84;21305;-65
2020/12/23 01:48:50;;;;;;;26.57;10.18;;;;;;;7.86;91.08;98740.80;2205875;81;21180;-65
2020/12/23 01:51:52;;;;;;;26.07;11.28;;;;;;;7.89;91.04;98736.72;2111494;84;21194;-70
2020/12/23 01:54:53;;;;;;;27.93;11.15;;;;;;;7.91;91.10;98750.53;2205833;81;21607;-76
2020/12/23 01:57:54;;;;;;;25.50;10.35;;;;;;;7.92;91.20;98744.87;2112025;84;21585;-74
2020/12/23 02:00:55;;;;;;;25.90;10.55;;;;;;;7.92;91.24;98740.48;2205827;80;21156;-76
2020/12/23 02:03:57;;;;;;;25.23;10.23;;;;;;;7.91;91.32;98753.61;2111801;84;21296;-76
2020/12/23 02:06:58;;;;;;;27.20;10.85;;;;;;;7.92;91.59;98742.25;2206081;80;21705;-77
2020/12/23 02:09:59;;;;;;;25.70;10.13;;;;;;;7.93;91.48;98742.17;2112021;84;21292;-77
2020/12/23 02:13:00;;;;;;;28.38;10.20;;;;;;;7.92;91.56;98727.42;2205840;80;21123;-73
2020/12/23 02:16:02;;;;;;;26.85;11.05;;;;;;;7.96;91.55;98739.88;2091593;84;21602;-65
2020/12/23 02:19:03;;;;;;;25.17;10.38;;;;;;;7.97;91.69;98746.32;2206336;80;21278;-65
2020/12/23 02:22:04;;;;;;;23.80;9.85;;;;;;;7.97;91.84;98740.23;2111516;84;21167;-65
2020/12/23 02:25:05;;;;;;;23.75;10.15;;;;;;;7.99;91.90;98737.09;2206026;80;21288;-65
2020/12/23 02:28:06;;;;;;;24.80;9.85;;;;;;;8.00;92.01;98733.53;2112140;84;21284;-65
2020/12/23 02:31:07;;;;;;;27.30;10.25;;;;;;;8.01;92.36;98731.31;2206012;80;21262;-65
2020/12/23 02:34:08;;;;;;;27.13;10.82;;;;;;;8.01;92.08;98722.65;2111708;84;21633;-65
2020/12/23 02:37:10;;;;;;;25.00;10.53;;;;;;;8.01;92.00;98726.09;2206520;81;21268;-65
2020/12/23 02:40:11;;;;;;;23.45;10.13;;;;;;;8.03;92.00;98727.31;2112214;84;21296;-65
2020/12/23 02:43:12;;;;;;;24.70;10.63;;;;;;;8.02;91.98;98735.63;2206065;80;21277;-65
2020/12/23 02:46:13;;;;;;;25.70;11.35;;;;;;;8.02;91.86;98739.55;2111897;84;21732;-65
2020/12/23 02:49:14;;;;;;;24.95;10.65;;;;;;;7.98;92.11;98746.68;2206462;80;21306;-65
2020/12/23 02:52:16;;;;;;;24.45;9.80;;;;;;;7.97;92.08;98750.68;2111890;84;21741;-65
2020/12/23 02:55:17;;;;;;;25.20;9.15;;;;;;;7.98;92.34;98748.45;2206241;81;21273;-65
2020/12/23 02:58:18;;;;;;;25.08;9.10;;;;;;;7.97;92.46;98763.73;2111935;84;21134;-65
2020/12/23 03:01:19;;;;;;;24.90;8.85;;;;;;;7.96;92.45;98751.63;2206424;80;21282;-65
2020/12/23 03:04:21;;;;;;;23.90;8.93;;;;;;;7.94;92.63;98754.31;2111800;84;21317;-65
2020/12/23 03:07:22;;;;;;;24.20;8.90;;;;;;;7.95;92.41;98747.31;2206159;80;21285;-64
2020/12/23 03:10:23;;;;;;;23.38;9.45;;;;;;;7.94;92.49;98749.09;2111952;84;21313;-65
2020/12/23 03:13:24;;;;;;;23.57;9.03;;;;;;;7.93;92.64;98751.75;2206067;80;21289;-67
2020/12/23 03:16:25;;;;;;;22.73;8.83;;;;;;;7.94;92.33;98750.41;2111904;84;21316;-65
2020/12/23 03:19:26;;;;;;;21.33;8.48;;;;;;;7.95;92.45;98742.92;2206472;80;21702;-65
2020/12/23 03:22:27;;;;;;;21.80;8.28;;;;;;;7.97;92.34;98737.17;2112066;84;21273;-65
2020/12/23 03:25:28;;;;;;;22.07;8.80;;;;;;;7.97;92.11;98734.56;2205917;81;21155;-65
2020/12/23 03:28:30;;;;;;;23.27;9.45;;;;;;;7.98;91.82;98736.23;2111988;84;22300;-70
2020/12/23 03:31:32;;;;;;;23.35;9.98;;;;;;;7.97;91.78;98742.84;2206419;80;21281;-68
2020/12/23 03:34:33;;;;;;;23.52;10.00;;;;;;;7.92;91.79;98748.31;2111887;84;21300;-71
2020/12/23 03:37:34;;;;;;;24.52;10.15;;;;;;;7.90;91.91;98740.16;2206056;81;21630;-68
2020/12/23 03:40:35;;;;;;;24.07;10.25;;;;;;;7.87;91.90;98742.94;2111625;84;21162;-66
2020/12/23 03:43:36;;;;;;;24.63;10.30;;;;;;;7.87;91.92;98753.38;2206138;80;21728;-65
2020/12/23 03:46:38;;;;;;;25.70;11.10;;;;;;;7.85;92.12;98759.99;2111865;84;21622;-65
2020/12/23 03:49:39;;;;;;;24.98;10.70;;;;;;;7.82;92.06;98753.63;2206090;81;21293;-67
2020/12/23 03:52:40;;;;;;;25.52;10.85;;;;;;;7.82;92.29;98757.54;2112079;84;21123;-70
2020/12/23 03:55:41;;;;;;;25.43;10.35;;;;;;;7.80;92.11;98743.27;2205930;81;21128;-65
2020/12/23 03:58:42;;;;;;;27.50;11.33;;;;;;;7.80;91.96;98732.81;2111972;84;21740;-65
2020/12/23 04:01:44;;;;;;;26.50;12.47;;;;;;;7.81;92.10;98731.04;2206157;81;21277;-65
2020/12/23 04:04:45;;;;;;;27.27;12.25;;;;;;;7.78;92.05;98723.36;2112007;84;21329;-65
2020/12/23 04:07:46;;;;;;;26.45;12.60;;;;;;;7.75;91.95;98726.97;2205979;80;21151;-64
2020/12/23 04:10:47;;;;;;;26.33;11.83;;;;;;;7.71;92.09;98739.80;2111849;84;21291;-65
2020/12/23 04:13:48;;;;;;;27.80;12.13;;;;;;;7.65;92.53;98745.80;2206115;81;21725;-65
2020/12/23 04:16:49;;;;;;;26.87;12.25;;;;;;;7.63;92.43;98756.33;2112074;84;21313;-66
2020/12/23 04:19:50;;;;;;;27.02;12.53;;;;;;;7.62;92.51;98751.55;2206275;80;21282;-68
2020/12/23 04:22:52;;;;;;;29.18;13.18;;;;;;;7.60;92.53;98744.27;2111805;84;21296;-71
2020/12/23 04:25:53;;;;;;;28.45;13.48;;;;;;;7.62;92.63;98745.02;2206258;80;21293;-67
2020/12/23 04:28:54;;;;;;;30.23;13.93;;;;;;;7.65;92.51;98745.80;2111597;84;21166;-70
2020/12/23 04:31:55;;;;;;;28.05;13.78;;;;;;;7.63;92.52;98746.72;2206157;80;21733;-67
2020/12/23 04:34:58;;;;;;;29.05;13.90;;;;;;;7.62;92.56;98761.98;2111773;84;21320;-70
2020/12/23 04:37:59;;;;;;;30.10;14.28;;;;;;;7.62;92.45;98759.37;2206008;81;21598;-67
2020/12/23 04:41:00;;;;;;;32.55;15.30;;;;;;;7.62;92.49;98772.43;2111810;84;21305;-69
2020/12/23 04:44:01;;;;;;;32.63;16.32;;;;;;;7.63;92.51;98747.19;2206284;81;21281;-65
2020/12/23 04:47:03;;;;;;;33.40;17.98;;;;;;;7.63;92.45;98766.77;2111680;84;21275;-65
2020/12/23 04:50:04;;;;;;;37.55;18.15;;;;;;;7.61;92.44;98761.63;2205907;80;21140;-65
2020/12/23 04:53:05;;;;;;;36.75;18.02;;;;;;;7.62;92.47;98756.77;2111597;84;21166;-70
2020/12/23 04:56:06;;;;;;;36.23;17.32;;;;;;;7.63;92.54;98747.19;2206357;80;21296;-65
2020/12/23 04:59:07;;;;;;;34.38;16.17;;;;;;;7.65;92.53;98747.11;2112035;84;21158;-73
2020/12/23 05:02:08;;;;;;;33.70;16.48;;;;;;;7.61;92.40;98751.19;2205819;80;21143;-66
2020/12/23 05:05:10;;;;;;;35.20;17.52;;;;;;;7.59;92.44;98749.09;2111682;84;21728;-65
2020/12/23 05:08:11;;;;;;;36.53;17.90;;;;;;;7.58;92.48;98753.09;2206347;80;21321;-65
2020/12/23 05:11:12;;;;;;;34.60;16.57;;;;;;;7.56;92.45;98759.70;2111789;84;21285;-65
2020/12/23 05:14:13;;;;;;;36.00;18.17;;;;;;;7.57;92.70;98764.44;2205958;80;21269;-65
2020/12/23 05:17:15;;;;;;;38.17;18.85;;;;;;;7.58;92.57;98764.84;2111699;84;21654;-65
2020/12/23 05:20:16;;;;;;;41.42;20.75;;;;;;;7.60;92.56;98766.89;2206349;80;21317;-65
2020/12/23 05:23:17;;;;;;;37.15;18.12;;;;;;;7.59;92.49;98769.98;2111555;84;21150;-65
2020/12/23 05:26:18;;;;;;;37.05;19.35;;;;;;;7.62;92.44;98775.05;2208002;80;21161;-80
2020/12/23 05:29:19;;;;;;;40.20;20.65;;;;;;;7.60;92.32;98776.03;2213294;80;21693;-80
2020/12/23 05:32:20;;;;;;;34.75;17.70;;;;;;;7.56;92.39;98777.12;2213474;80;21297;-65
2020/12/23 05:35:21;;;;;;;34.98;18.02;;;;;;;7.58;92.54;98771.36;2213457;80;21155;-65
2020/12/23 05:38:22;;;;;;;34.80;18.17;;;;;;;7.57;92.47;98778.36;2213044;80;21131;-67
2020/12/23 05:41:24;;;;;;;37.83;18.10;;;;;;;7.58;92.37;98776.11;2213488;80;21724;-70
2020/12/23 05:44:25;;;;;;;41.60;19.00;;;;;;;7.59;92.28;98775.20;2213043;80;21159;-65
2020/12/23 05:47:26;;;;;;;41.73;19.32;;;;;;;7.60;92.15;98781.25;2213276;80;21268;-65
2020/12/23 05:50:27;;;;;;;44.05;19.65;;;;;;;7.58;92.19;98802.21;2213206;80;21701;-65
2020/12/23 05:53:28;;;;;;;41.45;18.32;;;;;;;7.54;92.24;98799.84;2213414;80;21396;-73
2020/12/23 05:56:29;;;;;;;37.23;18.07;;;;;;;7.53;92.19;98792.91;2212987;80;21162;-71
2020/12/23 05:59:30;;;;;;;36.50;17.42;;;;;;;7.52;92.29;98781.64;2213001;80;21301;-72
2020/12/23 06:02:32;;;;;;;33.85;15.50;;;;;;;7.53;92.33;98795.53;2213426;80;21277;-80
2020/12/23 06:05:33;;;;;;;36.98;17.23;;;;;;;7.53;92.27;98787.25;2213167;80;21741;-65
2020/12/23 06:08:34;;;;;;;35.80;17.10;;;;;;;7.53;92.28;98787.25;2184988;80;21772;-65
2020/12/23 06:11:35;;;;;;;33.85;17.20;;;;;;;7.57;92.22;98799.23;2213165;80;21274;-66
2020/12/23 06:14:37;;;;;;;35.70;18.50;;;;;;;7.54;92.25;98800.70;2213299;80;21732;-68
2020/12/23 06:17:38;;;;;;;40.78;20.12;;;;;;;7.51;92.23;98809.12;2119094;83;21293;-72
2020/12/23 06:20:39;;;;;;;40.28;20.27;;;;;;;7.49;92.39;98822.72;2199934;81;21305;-65
2020/12/23 06:23:40;;;;;;;42.48;19.73;;;;;;;7.45;92.38;98822.02;2200086;81;21721;-71
2020/12/23 06:26:41;;;;;;;41.70;19.55;;;;;;;7.45;92.51;98823.31;2116374;83;21340;-71
2020/12/23 06:29:42;;;;;;;39.10;19.57;;;;;;;7.45;92.46;98824.62;2206421;80;21273;-65
2020/12/23 06:32:44;;;;;;;38.00;19.52;;;;;;;7.49;92.58;98818.81;2206255;81;21278;-66
2020/12/23 06:35:45;;;;;;;42.15;21.20;;;;;;;7.52;92.43;98819.95;2112152;84;21345;-66
2020/12/23 06:38:46;;;;;;;42.93;22.80;;;;;;;7.54;92.31;98824.63;2206039;80;21290;-69
2020/12/23 06:41:47;;;;;;;41.50;20.77;;;;;;;7.53;92.25;98819.02;2111774;84;21281;-68
2020/12/23 06:44:48;;;;;;;36.88;18.32;;;;;;;7.51;92.21;98816.48;2206124;80;21704;-65
2020/12/23 06:47:49;;;;;;;39.35;19.05;;;;;;;7.50;92.08;98820.47;2112128;84;21301;-65
2020/12/23 06:50:51;;;;;;;39.67;19.30;;;;;;;7.49;92.11;98832.69;2206202;81;21741;-65
2020/12/23 06:53:52;;;;;;;38.42;18.30;;;;;;;7.49;92.15;98837.08;2111757;84;21158;-66
2020/12/23 06:56:53;;;;;;;39.78;18.92;;;;;;;7.51;92.14;98833.92;2205985;80;21273;-66
2020/12/23 06:59:54;;;;;;;44.60;21.42;;;;;;;7.53;92.10;98837.28;2111793;84;21297;-69
2020/12/23 07:02:55;;;;;;;41.15;19.90;;;;;;;7.51;92.00;98830.00;2205974;81;21120;-67
2020/12/23 07:05:56;;;;;;;46.77;21.60;;;;;;;7.49;91.99;98823.55;2206081;81;21270;-66
2020/12/23 07:08:58;;;;;;;38.35;18.37;;;;;;;7.46;92.00;98825.84;2111691;84;21158;-66
2020/12/23 07:11:59;;;;;;;44.93;20.35;;;;;;;7.45;91.96;98828.53;2205991;80;21139;-66
2020/12/23 07:15:02;;;;;;;41.08;18.82;;;;;;;7.44;91.97;98829.00;2111711;84;21606;-66
2020/12/23 07:18:03;;;;;;;41.90;19.48;;;;;;;7.43;91.92;98826.00;2206188;81;21678;-65
2020/12/23 07:21:04;;;;;;;41.48;20.10;;;;;;;7.43;91.90;98833.00;2111787;84;21309;-65
2020/12/23 07:24:06;;;;;;;41.80;19.73;;;;;;;7.43;91.95;98829.08;2206010;80;21282;-65
2020/12/23 07:27:07;;;;;;;39.23;20.12;;;;;;;7.45;91.94;98822.02;2111638;84;21154;-75
2020/12/23 07:30:08;;;;;;;46.65;21.60;;;;;;;7.47;91.79;98826.72;2206242;80;21282;-77
2020/12/23 07:33:09;;;;;;;44.27;22.70;;;;;;;7.45;91.79;98836.36;2111862;84;21626;-74
2020/12/23 07:36:10;;;;;;;50.20;24.15;;;;;;;7.43;91.96;98823.86;2206432;81;21293;-65
2020/12/23 07:39:12;;;;;;;47.98;24.15;;;;;;;7.45;91.88;98826.76;2111894;84;21284;-69
2020/12/23 07:42:13;;;;;;;44.88;22.17;;;;;;;7.48;91.89;98816.64;2205948;80;21603;-65
2020/12/23 07:45:14;;;;;;;41.00;20.00;;;;;;;7.50;91.67;98828.30;2111865;84;21753;-65
2020/12/23 07:48:15;;;;;;;37.83;18.57;;;;;;;7.47;91.55;98833.23;2206188;81;21329;-65
2020/12/23 07:51:16;;;;;;;35.70;17.10;;;;;;;7.45;91.59;98819.40;2091839;84;21284;-66
2020/12/23 07:54:18;;;;;;;39.30;19.23;;;;;;;7.50;91.64;98820.03;2206061;80;21741;-67
2020/12/23 07:57:19;;;;;;;38.40;19.73;;;;;;;7.54;91.53;98824.63;2111756;84;21586;-65
2020/12/23 08:00:21;;;;;;;45.20;22.50;;;;;;;7.54;91.45;98822.02;2206192;80;21734;-67
2020/12/23 08:03:22;;;;;;;34.85;17.02;;;;;;;7.50;91.42;98834.39;2112099;84;21518;-65
2020/12/23 08:06:24;;;;;;;43.65;20.55;;;;;;;7.46;91.26;98843.28;2175689;81;21741;-65
2020/12/23 08:09:25;;;;;;;44.33;20.20;;;;;;;7.43;91.38;98834.30;2206445;81;21302;-65
2020/12/23 08:12:26;;;;;;;45.55;17.90;;;;;;;7.43;91.37;98848.66;2111574;84;21167;-65
2020/12/23 08:15:27;;;;;;;46.55;19.95;;;;;;;7.40;91.41;98848.33;2206134;80;21713;-65
2020/12/23 08:18:28;;;;;;;52.08;23.98;;;;;;;7.40;91.54;98843.12;2111738;84;21585;-65
2020/12/23 08:21:29;;;;;;;47.85;22.48;;;;;;;7.47;91.63;98831.94;2206384;80;21301;-66
2020/12/23 08:24:30;;;;;;;47.45;21.00;;;;;;;7.48;91.50;98837.52;2112058;84;21332;-70
2020/12/23 08:27:31;;;;;;;45.63;21.70;;;;;;;7.49;91.61;98841.83;2209444;80;21279;-68
2020/12/23 08:30:33;;;;;;;39.00;19.07;;;;;;;7.51;91.53;98850.88;2213299;80;21716;-71
2020/12/23 08:33:34;;;;;;;27.93;12.65;;;;;;;7.52;91.61;98846.89;2213563;80;21277;-70
2020/12/23 08:36:35;;;;;;;30.15;13.28;;;;;;;7.56;91.60;98851.05;2213022;80;21179;-69
2020/12/23 08:39:36;;;;;;;27.75;11.70;;;;;;;7.60;91.21;98859.56;2213404;80;21290;-71
2020/12/23 08:42:37;;;;;;;27.20;12.23;;;;;;;7.61;91.43;98871.27;2213148;80;21159;-65
2020/12/23 08:45:38;;;;;;;28.15;12.55;;;;;;;7.66;91.58;98863.20;2118467;83;21280;-69
2020/12/23 08:48:40;;;;;;;25.17;8.23;;;;;;;7.71;91.47;98869.50;2200177;81;21112;-68
2020/12/23 08:51:41;;;;;;;26.68;10.98;;;;;;;7.66;90.31;98875.39;2199886;81;21562;-69
2020/12/23 08:54:43;;;;;;;23.25;9.28;;;;;;;7.59;90.90;98869.17;2200361;81;21325;-66
2020/12/23 08:57:44;;;;;;;22.37;6.97;;;;;;;7.51;90.24;98867.38;2200515;81;21593;-66
2020/12/23 09:00:46;;;;;;;20.70;7.70;;;;;;;7.38;90.23;98859.28;2118794;83;21300;-65
2020/12/23 09:03:47;;;;;;;21.62;6.70;;;;;;;7.41;90.75;98875.27;2199805;81;21258;-70
2020/12/23 09:06:52;;;;;;;21.65;6.90;;;;;;;7.39;90.63;98879.25;2199807;81;21273;-65
2020/12/23 09:09:51;;;;;;;18.85;5.42;;;;;;;7.39;90.57;98870.59;2199310;81;21257;-66
2020/12/23 09:12:52;;;;;;;21.07;6.40;;;;;;;7.34;90.49;98876.03;2200003;81;21713;-66
2020/12/23 09:15:53;;;;;;;22.07;6.92;;;;;;;7.32;90.73;98874.41;2118651;84;21594;-66
2020/12/23 09:18:54;;;;;;;19.80;6.60;;;;;;;7.31;90.96;98879.23;2200275;81;21155;-66
2020/12/23 09:21:55;;;;;;;20.15;6.60;;;;;;;7.32;91.29;98879.63;2199996;81;21166;-65
2020/12/23 09:24:56;;;;;;;20.50;7.00;;;;;;;7.36;91.28;98874.66;2200252;81;21278;-66
2020/12/23 09:27:58;;;;;;;22.93;7.62;;;;;;;7.42;91.40;98874.36;2115020;83;21618;-67
2020/12/23 09:30:59;;;;;;;25.37;9.35;;;;;;;7.43;91.20;98864.31;2205854;80;21761;-65
2020/12/23 09:34:00;;;;;;;26.23;10.23;;;;;;;7.42;91.28;98863.45;2111638;84;21590;-68
2020/12/23 09:37:01;;;;;;;25.32;11.08;;;;;;;7.46;91.09;98868.08;2205971;81;21281;-68
2020/12/23 09:40:03;;;;;;;24.98;10.03;;;;;;;7.40;91.00;98864.46;2111989;84;21280;-71
2020/12/23 09:43:04;;;;;;;27.17;9.60;;;;;;;7.38;91.07;98864.98;2151227;81;21274;-65
2020/12/23 09:46:08;;;;;;;22.95;7.78;;;;;;;7.36;90.88;98868.97;2112032;84;21741;-68
2020/12/23 09:49:08;;;;;;;24.18;8.73;;;;;;;7.26;90.60;98864.63;2205893;80;21556;-69
2020/12/23 09:52:09;;;;;;;25.60;9.33;;;;;;;7.15;90.56;98856.92;2111990;84;21293;-66
2020/12/23 09:55:11;;;;;;;22.13;7.42;;;;;;;7.09;90.91;98848.45;2206341;80;21163;-66
2020/12/23 09:58:12;;;;;;;19.30;6.58;;;;;;;7.05;91.32;98850.84;2111575;84;21166;-66
2020/12/23 10:01:13;;;;;;;19.52;6.22;;;;;;;7.07;91.23;98838.56;2206303;81;21131;-73
2020/12/23 10:04:14;;;;;;;18.25;5.20;;;;;;;7.08;91.27;98837.66;2111498;84;21174;-65
2020/12/23 10:07:18;;;;;;;13.38;4.25;;;;;;;7.10;91.12;98833.20;2206345;81;21139;-68
2020/12/23 10:10:19;;;;;;;14.73;4.28;;;;;;;7.14;90.87;98833.05;2111742;84;21770;-65
2020/12/23 10:13:20;;;;;;;18.12;4.40;;;;;;;7.23;90.78;98833.95;2205831;81;21286;-66
2020/12/23 10:16:21;;;;;;;14.45;3.80;;;;;;;7.31;90.79;98833.57;2111518;84;21190;-65
2020/12/23 10:19:22;;;;;;;13.90;4.10;;;;;;;7.35;90.02;98833.81;2206035;80;21594;-69
2020/12/23 10:22:24;;;;;;;14.60;4.20;;;;;;;7.40;90.36;98839.20;2111784;84;21182;-73
2020/12/23 10:25:25;;;;;;;13.35;4.03;;;;;;;7.49;89.97;98834.47;2206085;81;21781;-66
2020/12/23 10:28:26;;;;;;;15.70;3.70;;;;;;;7.55;89.92;98822.41;2130611;83;21165;-66
2020/12/23 10:31:28;;;;;;;12.25;3.25;;;;;;;7.55;89.11;98840.69;2176520;81;21289;-66
2020/12/23 10:34:29;;;;;;;12.03;3.85;;;;;;;7.52;88.99;98839.53;2144204;83;21292;-65
2020/12/23 10:37:30;;;;;;;15.25;4.22;;;;;;;7.52;88.99;98835.63;2200638;81;21293;-65
2020/12/23 10:40:31;;;;;;;15.53;4.60;;;;;;;7.50;89.51;98826.56;2143981;83;21327;-65
2020/12/23 10:43:32;;;;;;;17.35;4.53;;;;;;;7.59;89.74;98818.74;2200874;81;21280;-66
2020/12/23 10:46:34;;;;;;;13.65;3.83;;;;;;;7.74;89.82;98807.99;2143874;83;21137;-66
2020/12/23 10:49:37;;;;;;;13.85;4.00;;;;;;;7.84;89.04;98811.83;2200610;81;21139;-65
2020/12/23 10:52:39;;;;;;;13.60;4.25;;;;;;;7.86;88.58;98812.61;2144112;83;21579;-66
2020/12/23 10:55:40;;;;;;;16.62;4.10;;;;;;;7.88;88.46;98815.15;2201002;81;21294;-67
2020/12/23 10:58:41;;;;;;;13.30;3.77;;;;;;;7.79;88.12;98814.67;2144219;83;21162;-65
2020/12/23 11:01:42;;;;;;;16.07;3.95;;;;;;;7.78;88.64;98810.84;2200575;81;21143;-66
2020/12/23 11:04:45;;;;;;;14.00;4.17;;;;;;;7.79;88.24;98808.15;2144273;83;21704;-65
2020/12/23 11:07:46;;;;;;;9.95;3.30;;;;;;;7.85;88.58;98804.39;2200792;81;21135;-65
2020/12/23 11:10:48;;;;;;;13.72;4.03;;;;;;;7.88;88.12;98808.14;2143872;83;21172;-65
2020/12/23 11:13:49;;;;;;;14.47;4.33;;;;;;;7.88;88.40;98805.53;2200815;81;21714;-66
2020/12/23 11:16:50;;;;;;;13.43;4.05;;;;;;;7.94;88.31;98811.78;2143901;83;21166;-66
2020/12/23 11:19:54;;;;;;;14.07;4.05;;;;;;;7.90;87.65;98812.85;2200742;81;21135;-65
2020/12/23 11:22:56;;;;;;;;;;;;;;;7.93;88.46;98811.38;2146688;83;21807;-66
2020/12/23 11:25:57;;;;;;;12.70;3.85;;;;;;;7.95;87.62;98813.44;2181525;82;20232;-65
2020/12/23 11:28:58;;;;;;;14.53;3.90;;;;;;;7.91;88.37;98816.30;2197478;81;21285;-65
2020/12/23 11:31:59;;;;;;;14.68;4.37;;;;;;;7.95;88.51;98813.91;2111764;84;21737;-65
2020/12/23 11:35:00;;;;;;;14.58;4.25;;;;;;;8.00;88.41;98815.81;2205957;80;21131;-65
2020/12/23 11:38:03;;;;;;;17.82;5.08;;;;;;;8.05;88.35;98807.77;2111580;84;21155;-65
2020/12/23 11:41:04;;;;;;;15.60;4.42;;;;;;;8.06;88.48;98805.52;2205938;81;21120;-71
2020/12/23 11:44:05;;;;;;;15.78;4.25;;;;;;;8.21;88.51;98807.36;2111658;84;21142;-71
2020/12/23 11:47:07;;;;;;;13.20;4.20;;;;;;;8.34;88.20;98803.64;2205993;80;21143;-66
2020/12/23 11:50:08;;;;;;;17.60;4.80;;;;;;;8.48;88.07;98806.41;2112010;84;21295;-69
2020/12/23 11:53:09;;;;;;;16.20;5.25;;;;;;;8.56;87.81;98799.48;2205947;81;21210;-66
2020/12/23 11:56:10;;;;;;;21.02;5.70;;;;;;;8.57;87.40;98801.16;2112384;84;21312;-65
2020/12/23 11:59:11;;;;;;;19.40;6.08;;;;;;;8.54;87.47;98794.78;2206436;80;21305;-66
2020/12/23 12:02:12;;;;;;;21.07;5.83;;;;;;;8.52;87.55;98801.88;2111848;84;21308;-72
2020/12/23 12:05:14;;;;;;;18.50;5.30;;;;;;;8.47;87.11;98799.48;2205965;80;21119;-69
2020/12/23 12:08:16;;;;;;;16.55;4.85;;;;;;;8.44;87.04;98804.02;2112214;84;21304;-67
2020/12/23 12:11:17;;;;;;;17.07;5.15;;;;;;;8.43;86.77;98796.64;2205922;80;21143;-65
2020/12/23 12:14:18;;;;;;;20.88;5.83;;;;;;;8.43;87.09;98795.78;2111596;84;21170;-71
2020/12/23 12:17:19;;;;;;;15.60;5.45;;;;;;;8.48;87.18;98801.66;2206022;80;21733;-65
2020/12/23 12:20:20;;;;;;;19.85;6.17;;;;;;;8.52;86.88;98792.73;2112296;84;21181;-66
2020/12/23 12:23:22;;;;;;;19.57;6.35;;;;;;;8.41;86.86;98791.94;2206185;81;21689;-67
2020/12/23 12:26:23;;;;;;;23.52;7.60;;;;;;;8.36;87.07;98782.66;2112078;84;21281;-66
2020/12/23 12:29:24;;;;;;;29.55;12.47;;;;;;;8.39;87.42;98782.48;2211337;80;21753;-66
2020/12/23 12:32:25;;;;;;;23.10;8.60;;;;;;;8.51;87.47;98783.66;2213500;80;21309;-68
2020/12/23 12:35:26;;;;;;;21.10;7.42;;;;;;;8.64;87.46;98782.08;2212999;80;21147;-66
2020/12/23 12:38:27;;;;;;;21.97;8.60;;;;;;;8.75;87.29;98783.65;2213024;80;21281;-65
2020/12/23 12:41:29;;;;;;;24.27;9.28;;;;;;;8.83;86.97;98781.47;2118791;84;21174;-65
2020/12/23 12:44:31;;;;;;;21.40;7.90;;;;;;;8.83;86.47;98785.84;2199949;81;21301;-66
2020/12/23 12:47:32;;;;;;;26.97;9.70;;;;;;;8.84;86.67;98787.05;2118609;83;21620;-65
2020/12/23 12:50:33;;;;;;;24.32;9.85;;;;;;;8.73;86.38;98793.33;2200000;81;21297;-68
2020/12/23 12:53:34;;;;;;;22.62;7.87;;;;;;;8.77;86.36;98795.33;2118690;83;21645;-69
2020/12/23 12:56:36;;;;;;;22.87;8.23;;;;;;;8.81;86.46;98792.46;2200217;81;21290;-68
2020/12/23 12:59:39;;;;;;;23.83;7.50;;;;;;;8.88;86.34;98788.19;2199801;81;21269;-68
2020/12/23 13:02:40;;;;;;;19.82;6.42;;;;;;;8.87;86.17;98799.61;2173543;81;21337;-65
2020/12/23 13:05:42;;;;;;;18.80;6.10;;;;;;;8.82;86.57;98803.75;2118918;84;21292;-65
2020/12/23 13:08:43;;;;;;;24.35;7.72;;;;;;;8.80;86.54;98814.78;2200266;81;21139;-70
2020/12/23 13:11:45;;;;;;;21.50;6.92;;;;;;;8.75;86.64;98815.03;2118612;84;21300;-66
2020/12/23 13:14:46;;;;;;;22.87;7.80;;;;;;;8.74;86.55;98815.12;2199785;81;21293;-66
2020/12/23 13:17:47;;;;;;;22.73;8.73;;;;;;;8.74;86.55;98822.48;2118890;84;21268;-65
2020/12/23 13:20:48;;;;;;;26.70;10.88;;;;;;;8.75;86.65;98824.63;2199840;81;21284;-66
2020/12/23 13:23:50;;;;;;;28.50;11.30;;;;;;;8.79;86.63;98821.79;2200006;81;21567;-65
2020/12/23 13:26:51;;;;;;;26.60;12.00;;;;;;;8.79;86.63;98817.87;2118664;84;21161;-65
2020/12/23 13:29:52;;;;;;;35.98;16.77;;;;;;;8.74;86.52;98824.27;2196596;81;21651;-65
2020/12/23 13:32:53;;;;;;;26.75;11.57;;;;;;;8.69;86.54;98822.34;2112005;84;21304;-71
2020/12/23 13:35:54;;;;;;;32.33;13.98;;;;;;;8.63;86.56;98821.77;2206314;81;21312;-71
2020/12/23 13:38:56;;;;;;;38.50;18.55;;;;;;;8.60;86.68;98823.21;2111556;84;21115;-70
2020/12/23 13:41:57;;;;;;;25.55;11.35;;;;;;;8.59;86.75;98824.60;2206082;81;21293;-66
2020/12/23 13:44:58;;;;;;;26.65;10.72;;;;;;;8.55;86.84;98818.70;2111564;84;21182;-68
2020/12/23 13:47:59;;;;;;;30.75;11.73;;;;;;;8.53;87.00;98819.23;2206104;80;21717;-66
2020/12/23 13:51:00;;;;;;;34.18;13.20;;;;;;;8.50;87.02;98815.48;2111985;84;21304;-68
2020/12/23 13:54:01;;;;;;;61.45;27.52;;;;;;;8.48;86.99;98818.17;2205881;81;21119;-68
2020/12/23 13:57:03;;;;;;;45.63;19.90;;;;;;;8.48;87.13;98817.34;2111555;84;21158;-70
2020/12/23 14:00:04;;;;;;;62.88;29.87;;;;;;;8.48;87.08;98814.73;2206098;81;21310;-68
2020/12/23 14:03:05;;;;;;;68.52;32.40;;;;;;;8.49;87.06;98813.78;2111814;84;21336;-71
2020/12/23 14:06:07;;;;;;;54.60;30.02;;;;;;;8.48;87.11;98812.95;2206493;80;21310;-74